HSSJ

Juba International Airport

Juba, South Sudan
METAR HSSJ 151000Z 09004KT 8000 HZ ////// 34/08 Q1011
Observed Flight Rules
Dec-15 @ 10:00 UTC (10 hours ago)
Wind Visibility Conditions
90° at 4 knots 7,998 meters
  • Haze
Temperatures Readings
Current 34°C / 93°F
Dewpoint 8°C / 46°F
Humidity 20%
Altimeter 29.85" Hg
Pressure 1011 hPa
Elevation 457
METAR HSSJ 151000Z 09004KT 8000 HZ ////// 34/08 Q1011
Observed Flight Rules
Dec-15 @ 10:00 UTC
(10 hours ago)
Wind Visibility
90° at 4 knots 7,998 meters
Conditions
  • Haze
Temperature Dewpoint
34°C / 93°F 8°C / 46°F
Humidity Altimeter Pressure
20% 29.85" Hg 1011 hPa